Time;durP1;ratioP1;P1;durP2;ratioP2;P2;SDS_P1;SDS_P2;PMS_P1;PMS_P2;Temp;Humidity;BMP_temperature;BMP_pressure;BME280_temperature;BME280_humidity;BME280_pressure;Samples;Min_cycle;Max_cycle;Signal;HPM_P1;HPM_P2
2022/03/01 00:01:55;;;;;;;16.07;8.70;;;;;;;1.87;62.72;102762.19;4975638;28;20117;-92
2022/03/01 00:04:21;;;;;;;19.17;9.23;;;;;;;1.85;62.95;102758.66;4974880;28;20477;-91
2022/03/01 00:06:46;;;;;;;15.97;8.97;;;;;;;1.82;63.27;102759.41;4974866;28;20081;-92
2022/03/01 00:09:12;;;;;;;15.93;8.67;;;;;;;1.80;63.06;102760.16;4975753;28;20426;-91
2022/03/01 00:11:38;;;;;;;16.07;8.80;;;;;;;1.79;62.84;102764.41;4976284;28;20488;-92
2022/03/01 00:14:04;;;;;;;15.17;8.53;;;;;;;1.78;63.42;102764.34;4992522;28;20026;-91
2022/03/01 00:16:31;;;;;;;17.30;9.00;;;;;;;1.76;63.53;102765.97;4976020;28;20022;-91
2022/03/01 00:18:58;;;;;;;16.00;8.60;;;;;;;1.74;63.43;102765.91;4973637;28;20041;-92
2022/03/01 00:21:24;;;;;;;19.30;9.30;;;;;;;1.73;63.24;102769.28;4993025;28;20386;-92
2022/03/01 00:23:49;;;;;;;16.13;8.53;;;;;;;1.72;63.08;102766.66;4976482;28;20053;-92
2022/03/01 00:26:15;;;;;;;18.50;9.23;;;;;;;1.70;63.33;102763.16;4973822;28;20050;-92
2022/03/01 00:28:40;;;;;;;16.07;8.40;;;;;;;1.67;63.48;102763.88;4973144;28;20482;-92
2022/03/01 00:31:05;;;;;;;15.80;8.83;;;;;;;1.63;63.90;102768.03;4975412;28;20039;-92
2022/03/01 00:33:31;;;;;;;17.47;8.80;;;;;;;1.61;63.40;102769.63;4974657;28;20068;-92
2022/03/01 00:35:57;;;;;;;16.80;8.70;;;;;;;1.58;63.27;102772.06;4976161;28;20041;-91
2022/03/01 00:38:22;;;;;;;16.47;8.57;;;;;;;1.55;63.17;102774.50;4990102;28;20037;-92
2022/03/01 00:40:47;;;;;;;18.97;8.80;;;;;;;1.48;63.36;102773.38;4975168;28;20033;-92
2022/03/01 00:43:13;;;;;;;18.03;9.10;;;;;;;1.45;63.08;102767.22;4975585;28;20053;-92
2022/03/01 00:45:38;;;;;;;18.03;8.77;;;;;;;1.39;63.35;102765.28;4972888;28;20125;-92
2022/03/01 00:48:03;;;;;;;16.90;9.10;;;;;;;1.36;63.83;102762.59;4990451;28;20046;-92
2022/03/01 00:50:29;;;;;;;16.37;9.03;;;;;;;1.31;64.24;102762.38;4973892;28;20022;-92
2022/03/01 00:52:54;;;;;;;16.57;8.50;;;;;;;1.27;63.86;102763.06;4974084;28;20470;-92
2022/03/01 00:55:20;;;;;;;15.70;8.50;;;;;;;1.27;64.06;102768.19;4975142;28;20093;-92
2022/03/01 00:57:45;;;;;;;16.83;8.43;;;;;;;1.23;64.53;102761.16;4992082;28;20393;-92
2022/03/01 01:00:12;;;;;;;16.83;8.93;;;;;;;1.21;64.26;102748.28;4975386;28;20113;-92
2022/03/01 01:02:37;;;;;;;16.47;8.70;;;;;;;1.20;64.20;102758.44;4975325;28;20026;-92
2022/03/01 01:05:03;;;;;;;15.80;8.43;;;;;;;1.19;64.65;102754.16;4974805;28;20046;-92
2022/03/01 01:07:28;;;;;;;19.20;9.33;;;;;;;1.19;64.33;102759.28;4973135;28;20065;-92
2022/03/01 01:09:53;;;;;;;16.03;8.50;;;;;;;1.17;64.54;102755.78;4974669;28;20082;-92
2022/03/01 01:12:19;;;;;;;14.83;8.37;;;;;;;1.16;64.55;102754.03;4973627;28;20149;-92
2022/03/01 01:14:44;;;;;;;18.00;8.83;;;;;;;1.15;64.85;102754.84;4974113;28;20030;-92
2022/03/01 01:17:09;;;;;;;17.90;9.30;;;;;;;1.14;64.89;102755.63;4973152;28;20097;-92
2022/03/01 01:19:35;;;;;;;15.37;8.40;;;;;;;1.15;64.36;102757.41;4992090;28;20061;-93
2022/03/01 01:24:44;;;;;;;16.60;8.23;;;;;;;1.11;64.26;102758.06;4991214;28;20041;-92
2022/03/01 01:27:10;;;;;;;19.13;9.00;;;;;;;1.09;64.56;102754.53;4975734;28;20026;-92
2022/03/01 01:29:35;;;;;;;19.60;9.60;;;;;;;1.05;64.32;102751.84;4973939;28;20053;-93
2022/03/01 01:32:01;;;;;;;17.27;9.17;;;;;;;1.03;64.21;102758.59;4991049;28;20023;-92
2022/03/01 01:34:26;;;;;;;16.27;8.67;;;;;;;0.99;64.18;102751.59;4974062;28;20030;-92
2022/03/01 01:36:51;;;;;;;17.17;9.07;;;;;;;0.96;64.16;102751.44;4972109;28;20085;-92
2022/03/01 01:39:16;;;;;;;16.70;9.00;;;;;;;0.94;64.73;102758.19;4992357;28;20515;-93
2022/03/01 01:41:42;;;;;;;18.50;9.27;;;;;;;0.90;64.60;102757.19;4974411;28;20026;-92
2022/03/01 01:44:08;;;;;;;18.03;8.97;;;;;;;0.93;64.71;102759.00;4975385;28;20026;-92
2022/03/01 01:46:33;;;;;;;17.30;8.40;;;;;;;0.92;64.72;102758.94;4991925;28;20042;-93
2022/03/01 01:48:58;;;;;;;16.50;8.50;;;;;;;0.89;64.29;102755.41;4975970;28;20054;-92
2022/03/01 01:51:24;;;;;;;17.23;9.07;;;;;;;0.88;64.63;102755.34;4974063;28;20026;-92
2022/03/01 01:53:50;;;;;;;15.57;8.53;;;;;;;0.90;64.84;102754.63;4973339;28;20022;-92
2022/03/01 01:56:15;;;;;;;17.17;9.10;;;;;;;0.89;64.84;102751.97;4992318;28;20542;-91
2022/03/01 01:58:41;;;;;;;15.43;8.30;;;;;;;0.90;64.66;102751.16;4974230;28;20429;-92
2022/03/01 02:01:07;;;;;;;16.40;8.57;;;;;;;0.91;64.96;102750.34;4973901;28;20117;-92
2022/03/01 02:03:32;;;;;;;15.37;8.30;;;;;;;0.92;64.89;102749.53;4974130;28;20085;-92
2022/03/01 02:05:57;;;;;;;18.03;8.97;;;;;;;0.91;64.29;102747.78;4991330;28;20056;-92
2022/03/01 02:08:29;;;;;;;16.60;8.30;;;;;;;0.93;64.65;102746.19;4974750;28;20159;-92
2022/03/01 02:10:54;;;;;;;16.20;8.43;;;;;;;0.92;64.75;102744.41;4991952;28;20041;-92
2022/03/01 02:13:20;;;;;;;17.17;8.67;;;;;;;0.92;65.12;102754.66;4990706;28;20041;-92
2022/03/01 02:15:45;;;;;;;18.20;8.80;;;;;;;0.90;64.99;102746.03;4973836;28;20034;-91
2022/03/01 02:18:10;;;;;;;18.87;8.73;;;;;;;0.92;65.30;102744.41;4973588;28;20022;-92
2022/03/01 02:20:36;;;;;;;17.17;8.97;;;;;;;0.93;64.85;102745.31;4973111;28;20041;-91
2022/03/01 02:23:01;;;;;;;18.20;8.53;;;;;;;0.93;65.08;102743.63;4974717;28;20031;-93
2022/03/01 02:25:26;;;;;;;17.37;8.53;;;;;;;0.94;64.86;102747.94;4974015;28;20030;-92
2022/03/01 02:27:53;;;;;;;17.27;8.73;;;;;;;0.96;65.56;102753.13;4974593;28;20034;-92
2022/03/01 02:30:18;;;;;;;16.80;9.13;;;;;;;0.96;65.48;102748.00;4973873;28;20026;-92
2022/03/01 02:32:44;;;;;;;18.70;8.83;;;;;;;0.93;65.33;102741.06;4975124;28;20022;-92
2022/03/01 02:35:11;;;;;;;17.57;9.10;;;;;;;0.94;65.04;102737.69;4974067;28;20092;-91
2022/03/01 02:37:37;;;;;;;17.63;9.23;;;;;;;0.93;65.50;102732.50;4991649;28;20041;-92
2022/03/01 02:40:05;;;;;;;16.67;8.80;;;;;;;0.91;65.37;102737.53;4973310;28;20026;-92
2022/03/01 02:42:31;;;;;;;19.83;9.50;;;;;;;0.90;65.36;102741.81;4991239;28;21190;-92
2022/03/01 02:44:56;;;;;;;14.47;8.50;;;;;;;0.90;65.74;102735.78;4974955;28;20757;-91
2022/03/01 02:47:21;;;;;;;17.50;9.10;;;;;;;0.89;64.99;102742.59;4991366;28;20462;-92
2022/03/01 02:49:47;;;;;;;17.03;8.70;;;;;;;0.87;65.53;102751.91;4990657;28;20036;-92
2022/03/01 02:52:12;;;;;;;17.87;9.37;;;;;;;0.86;65.26;102744.13;4974275;28;20076;-92
2022/03/01 02:54:37;;;;;;;15.77;8.80;;;;;;;0.82;65.87;102749.94;4990165;28;20026;-92
2022/03/01 02:57:03;;;;;;;19.67;9.17;;;;;;;0.80;65.41;102738.75;4974358;28;20032;-91
2022/03/01 02:59:29;;;;;;;18.80;9.90;;;;;;;0.79;65.03;102742.13;4971817;28;20026;-92
2022/03/01 03:01:56;;;;;;;19.20;9.50;;;;;;;0.77;65.36;102729.22;4972854;28;20056;-92
2022/03/01 03:04:22;;;;;;;17.60;9.40;;;;;;;0.75;65.67;102739.41;4973105;28;20022;-92
2022/03/01 03:06:47;;;;;;;18.53;9.53;;;;;;;0.72;66.62;102729.00;4973508;28;20480;-91
2022/03/01 03:09:13;;;;;;;18.40;9.23;;;;;;;0.70;67.28;102728.06;4973355;28;20022;-92
2022/03/01 03:11:38;;;;;;;18.87;8.97;;;;;;;0.69;66.91;102721.19;4991221;28;20030;-92
2022/03/01 03:14:03;;;;;;;18.10;9.07;;;;;;;0.69;65.92;102722.88;4973971;28;20112;-92
2022/03/01 03:16:29;;;;;;;19.00;8.97;;;;;;;0.68;66.01;102719.47;4971108;28;20092;-91
2022/03/01 03:18:54;;;;;;;18.97;9.20;;;;;;;0.68;66.59;102716.00;4973958;28;20046;-92
2022/03/01 03:21:19;;;;;;;19.93;9.10;;;;;;;0.70;66.33;102722.94;4990178;28;20038;-92
2022/03/01 03:23:45;;;;;;;19.03;9.47;;;;;;;0.70;66.91;102722.94;4974434;28;20044;-92
2022/03/01 03:26:10;;;;;;;17.10;9.13;;;;;;;0.68;66.47;102711.78;4991340;28;20110;-92
2022/03/01 03:28:36;;;;;;;17.77;9.00;;;;;;;0.66;67.17;102718.50;4972690;28;20026;-92
2022/03/01 03:31:01;;;;;;;19.63;9.80;;;;;;;0.67;67.19;102720.28;4974148;28;20022;-93
2022/03/01 03:33:26;;;;;;;17.27;9.37;;;;;;;0.66;66.76;102723.63;4972538;28;20022;-92
2022/03/01 03:35:54;;;;;;;17.57;9.37;;;;;;;0.62;66.51;102724.28;4972412;28;20034;-92
2022/03/01 03:38:19;;;;;;;20.10;9.40;;;;;;;0.61;66.61;102725.09;4972159;28;20026;-93
2022/03/01 03:40:45;;;;;;;15.30;8.77;;;;;;;0.58;66.63;102723.28;4972044;28;20033;-92
2022/03/01 03:43:10;;;;;;;15.70;8.43;;;;;;;0.59;66.74;102724.16;4972280;28;20488;-92
2022/03/01 03:45:36;;;;;;;19.80;9.67;;;;;;;0.57;66.42;102723.19;4972513;28;20542;-92
2022/03/01 03:48:01;;;;;;;21.13;9.93;;;;;;;0.52;67.25;102723.00;4991306;28;20030;-92
2022/03/01 03:50:27;;;;;;;18.53;9.40;;;;;;;0.49;66.91;102719.41;4990828;28;20045;-92
2022/03/01 03:52:52;;;;;;;19.47;9.57;;;;;;;0.45;67.59;102720.94;4990265;28;20494;-92
2022/03/01 03:55:18;;;;;;;17.63;8.90;;;;;;;0.42;68.37;102724.25;4972263;28;20053;-92
2022/03/01 03:57:43;;;;;;;16.77;8.97;;;;;;;0.42;67.55;102720.81;4973058;28;20104;-93
2022/03/01 04:00:15;;;;;;;15.73;9.07;;;;;;;0.40;68.52;102722.44;4972181;28;20030;-92
2022/03/01 04:02:40;;;;;;;;;;;;;;;0.44;65.85;102720.06;4988775;28;20023;-93
2022/03/01 04:05:06;;;;;;;18.33;8.57;;;;;;;0.42;66.78;102718.25;4973490;28;19917;-93
2022/03/01 04:07:32;;;;;;;17.10;9.10;;;;;;;0.44;67.03;102716.63;4972306;28;20026;-92
2022/03/01 04:09:57;;;;;;;19.77;9.47;;;;;;;0.47;66.88;102718.47;4973315;28;20157;-93
2022/03/01 04:12:22;;;;;;;16.47;9.67;;;;;;;0.48;66.97;102708.28;4989598;28;20022;-93
2022/03/01 04:14:47;;;;;;;17.83;9.00;;;;;;;0.51;67.28;102715.25;4989741;28;20037;-92
2022/03/01 04:17:13;;;;;;;16.67;9.17;;;;;;;0.50;67.71;102713.50;4988802;28;20191;-92
2022/03/01 04:19:38;;;;;;;18.07;8.90;;;;;;;0.49;67.71;102714.28;4972055;28;20030;-92
2022/03/01 04:22:03;;;;;;;16.87;9.17;;;;;;;0.51;67.01;102720.38;4972269;28;20023;-93
2022/03/01 04:24:29;;;;;;;16.97;9.03;;;;;;;0.50;67.17;102721.19;4972309;28;20023;-93
2022/03/01 04:26:54;;;;;;;16.93;8.57;;;;;;;0.52;66.85;102723.00;4972329;28;20449;-92
2022/03/01 04:29:19;;;;;;;17.70;9.33;;;;;;;0.52;67.29;102728.13;4971716;28;20026;-93
2022/03/01 04:31:45;;;;;;;19.77;9.70;;;;;;;0.55;66.90;102729.94;4970675;28;20077;-92
2022/03/01 04:34:10;;;;;;;18.67;9.27;;;;;;;0.54;66.94;102728.16;4989380;28;20030;-92
2022/03/01 04:36:35;;;;;;;19.63;9.87;;;;;;;0.53;66.76;102729.88;4971408;28;20382;-93
2022/03/01 04:39:01;;;;;;;18.93;9.57;;;;;;;0.55;67.23;102727.38;4973158;28;20430;-92
2022/03/01 04:41:26;;;;;;;20.23;9.53;;;;;;;0.54;67.68;102726.50;4971817;28;20061;-92
2022/03/01 04:43:51;;;;;;;17.57;8.63;;;;;;;0.56;67.11;102724.00;4970567;28;20046;-92
2022/03/01 04:46:18;;;;;;;17.53;8.87;;;;;;;0.56;67.18;102734.25;4970163;28;20030;-93
2022/03/01 04:48:44;;;;;;;17.47;8.67;;;;;;;0.57;67.27;102720.63;4992689;28;20023;-92
2022/03/01 04:51:09;;;;;;;18.13;8.97;;;;;;;0.58;67.36;102723.28;4976294;28;20524;-93
2022/03/01 04:53:35;;;;;;;18.07;9.07;;;;;;;0.59;67.18;102732.72;4976116;28;20041;-92
2022/03/01 04:56:01;;;;;;;18.40;9.07;;;;;;;0.59;68.42;102730.16;4975183;28;20386;-92
2022/03/01 04:58:26;;;;;;;17.40;9.40;;;;;;;0.63;68.87;102736.28;4975275;28;20027;-92
2022/03/01 05:00:54;;;;;;;15.53;8.87;;;;;;;0.63;67.98;102731.16;4976432;28;20425;-91
2022/03/01 05:03:20;;;;;;;18.03;9.63;;;;;;;0.64;68.37;102727.81;4975515;28;20053;-92
2022/03/01 05:05:45;;;;;;;17.17;8.83;;;;;;;0.65;68.62;102724.44;4973962;28;20497;-92
2022/03/01 05:08:10;;;;;;;17.27;9.37;;;;;;;0.67;67.27;102722.84;4976016;28;20030;-92
2022/03/01 05:10:36;;;;;;;17.87;9.57;;;;;;;0.68;67.22;102713.44;4993089;28;20022;-92
2022/03/01 05:13:01;;;;;;;17.13;8.63;;;;;;;0.71;67.38;102711.03;4975571;28;20386;-91
2022/03/01 05:15:28;;;;;;;19.27;9.70;;;;;;;0.73;67.81;102709.41;4976018;28;20121;-92
2022/03/01 05:17:55;;;;;;;18.80;9.27;;;;;;;0.74;67.81;102712.03;4992228;28;20502;-91
2022/03/01 05:20:21;;;;;;;18.43;9.30;;;;;;;0.75;67.54;102713.78;4975799;28;20034;-93
2022/03/01 05:22:47;;;;;;;21.27;10.40;;;;;;;0.75;67.80;102711.22;4975803;28;20478;-92
2022/03/01 05:25:15;;;;;;;18.43;9.83;;;;;;;0.75;67.78;102712.94;4992624;28;20062;-92
2022/03/01 05:27:43;;;;;;;18.63;9.73;;;;;;;0.74;68.21;102717.16;4975318;28;20473;-92
2022/03/01 05:30:11;;;;;;;19.03;10.03;;;;;;;0.74;67.79;102709.47;4975494;28;20014;-92
2022/03/01 05:32:39;;;;;;;16.87;9.50;;;;;;;0.74;67.62;102704.34;4992099;28;20029;-92
2022/03/01 05:35:09;;;;;;;19.83;9.90;;;;;;;0.73;67.69;102701.72;4976671;28;20033;-93
2022/03/01 05:37:34;;;;;;;19.50;9.90;;;;;;;0.74;67.75;102704.34;4974470;28;20034;-92
2022/03/01 05:39:59;;;;;;;18.57;10.20;;;;;;;0.73;67.93;102696.59;4975902;28;20027;-92
2022/03/01 05:42:25;;;;;;;20.20;10.10;;;;;;;0.72;68.04;102698.28;4973985;28;20022;-93
2022/03/01 05:44:50;;;;;;;18.37;10.00;;;;;;;0.73;67.75;102701.72;4976701;28;20069;-92
2022/03/01 05:47:16;;;;;;;19.57;10.07;;;;;;;0.70;67.81;102699.88;4975036;28;20543;-92
2022/03/01 05:49:42;;;;;;;16.10;9.33;;;;;;;0.70;67.92;102692.19;4974689;28;20033;-93
2022/03/01 05:52:08;;;;;;;17.00;9.50;;;;;;;0.68;67.28;102688.72;4975479;28;20101;-92
2022/03/01 05:54:33;;;;;;;19.57;10.17;;;;;;;0.67;67.53;102691.19;4974914;28;20478;-92
2022/03/01 05:56:58;;;;;;;17.10;9.07;;;;;;;0.65;67.98;102687.69;4991767;28;20034;-92
2022/03/01 05:59:24;;;;;;;19.10;9.90;;;;;;;0.66;67.64;102692.00;4991445;28;20034;-91
2022/03/01 06:01:49;;;;;;;20.13;10.03;;;;;;;0.63;68.19;102685.06;4991370;28;20393;-92
2022/03/01 06:04:14;;;;;;;19.13;9.57;;;;;;;0.61;67.70;102686.69;4990950;28;20018;-91
2022/03/01 06:06:39;;;;;;;21.17;10.40;;;;;;;0.59;67.85;102678.03;4973150;28;20038;-93
2022/03/01 06:09:05;;;;;;;18.60;10.30;;;;;;;0.57;67.46;102682.22;4992510;28;20018;-92
2022/03/01 06:11:31;;;;;;;20.63;10.27;;;;;;;0.55;67.89;102678.69;4973225;28;20326;-91
2022/03/01 06:13:56;;;;;;;17.03;9.40;;;;;;;0.54;68.04;102679.50;4992511;28;20096;-92
2022/03/01 06:16:22;;;;;;;18.43;9.90;;;;;;;0.51;68.26;102677.69;4992413;28;20477;-92
2022/03/01 06:18:47;;;;;;;18.83;10.13;;;;;;;0.50;67.76;102675.09;4975785;28;20030;-92
2022/03/01 06:21:13;;;;;;;19.73;9.97;;;;;;;0.48;67.45;102674.13;4975990;28;20065;-92
2022/03/01 06:23:38;;;;;;;19.60;10.57;;;;;;;0.48;67.71;102684.38;4991328;28;20019;-92
2022/03/01 06:26:03;;;;;;;20.13;10.17;;;;;;;0.49;67.63;102691.25;4975239;28;20113;-90
2022/03/01 06:28:29;;;;;;;20.13;10.30;;;;;;;0.46;68.31;102689.41;4992839;28;20105;-92
2022/03/01 06:30:55;;;;;;;20.37;10.20;;;;;;;0.44;67.91;102691.91;4974911;28;20490;-91
2022/03/01 06:33:20;;;;;;;19.33;10.30;;;;;;;0.43;68.09;102685.03;4974191;28;20109;-92
2022/03/01 06:35:46;;;;;;;20.80;9.57;;;;;;;0.41;67.91;102678.97;4975264;28;20025;-91
2022/03/01 06:38:11;;;;;;;24.33;9.80;;;;;;;0.42;67.90;102685.84;4975482;28;20026;-92
2022/03/01 06:40:37;;;;;;;19.27;9.83;;;;;;;0.42;67.98;102690.09;4972806;28;20088;-92
2022/03/01 06:43:03;;;;;;;19.37;10.47;;;;;;;0.43;68.26;102692.72;4971193;28;20118;-92
2022/03/01 06:45:29;;;;;;;24.60;11.00;;;;;;;0.43;68.24;102702.97;4991909;28;20030;-92
2022/03/01 06:47:54;;;;;;;20.10;10.33;;;;;;;0.45;67.85;102705.56;4973541;28;20308;-91
2022/03/01 06:50:19;;;;;;;23.97;10.53;;;;;;;0.45;67.44;102716.72;4975303;28;20105;-93
2022/03/01 06:52:45;;;;;;;23.70;10.37;;;;;;;0.48;68.42;102717.66;4992153;28;20030;-92
2022/03/01 06:55:11;;;;;;;24.13;11.00;;;;;;;0.52;68.38;102727.22;4974339;28;20022;-91
2022/03/01 06:57:40;;;;;;;19.57;10.57;;;;;;;0.54;68.26;102725.59;4992076;28;20022;-91
2022/03/01 07:00:07;;;;;;;20.63;10.50;;;;;;;0.58;68.24;102728.41;4991435;28;20034;-92
2022/03/01 07:02:38;;;;;;;20.57;10.77;;;;;;;0.60;68.17;102731.88;4973752;28;20386;-92
2022/03/01 07:05:09;;;;;;;21.23;10.90;;;;;;;0.64;68.72;102739.72;4973186;28;20054;-91
2022/03/01 07:07:35;;;;;;;19.45;9.88;;;;;;;0.69;68.62;102741.69;4971574;28;20037;-92
2022/03/01 07:10:01;;;;;;;17.87;9.63;;;;;;;0.74;69.02;102742.78;4973914;28;20102;-91
2022/03/01 07:12:27;;;;;;;20.83;10.40;;;;;;;0.83;68.19;102738.91;4990079;28;20038;-91
2022/03/01 07:14:53;;;;;;;20.67;10.10;;;;;;;0.90;68.14;102736.69;4989195;28;20026;-91
2022/03/01 07:17:20;;;;;;;19.93;10.17;;;;;;;0.98;68.01;102744.72;4989951;28;20112;-91
2022/03/01 07:19:45;;;;;;;18.17;9.97;;;;;;;1.06;68.59;102738.22;4990501;28;20190;-92
2022/03/01 07:22:10;;;;;;;21.00;9.80;;;;;;;1.17;68.49;102740.41;4991123;28;20249;-91
2022/03/01 07:24:35;;;;;;;20.13;9.93;;;;;;;1.23;68.49;102748.34;4988851;28;20054;-92
2022/03/01 07:27:01;;;;;;;16.80;9.30;;;;;;;1.30;68.02;102752.94;4974794;28;20031;-91
2022/03/01 07:29:27;;;;;;;20.17;10.00;;;;;;;1.35;68.06;102751.47;4972289;28;20089;-91
2022/03/01 07:31:52;;;;;;;16.30;9.57;;;;;;;1.41;68.01;102744.81;4972981;28;20022;-92
2022/03/01 07:34:18;;;;;;;23.37;10.77;;;;;;;1.45;66.61;102726.19;4988853;28;20113;-92
2022/03/01 07:36:43;;;;;;;18.50;9.57;;;;;;;1.51;66.61;102747.00;4971185;28;20033;-91
2022/03/01 07:39:09;;;;;;;19.20;9.83;;;;;;;1.54;66.53;102736.81;4973131;28;20030;-91
2022/03/01 07:41:34;;;;;;;16.97;9.17;;;;;;;1.59;66.05;102745.59;4971534;28;20030;-92
2022/03/01 07:43:59;;;;;;;18.47;9.93;;;;;;;1.63;65.61;102742.38;4989610;28;20101;-91
2022/03/01 07:46:25;;;;;;;18.60;9.60;;;;;;;1.69;65.91;102753.72;4971229;28;20026;-92
2022/03/01 07:48:50;;;;;;;17.20;9.40;;;;;;;1.73;66.11;102753.91;4972621;28;20399;-91
2022/03/01 07:51:15;;;;;;;18.63;9.60;;;;;;;1.77;66.13;102754.88;4969371;28;20557;-92
2022/03/01 07:53:40;;;;;;;16.80;9.70;;;;;;;1.81;66.38;102751.66;4970418;28;20014;-90
2022/03/01 07:56:06;;;;;;;17.47;9.70;;;;;;;1.86;66.53;102757.84;4989755;28;20026;-92
2022/03/01 07:58:31;;;;;;;17.70;9.73;;;;;;;1.90;65.78;102757.16;4971222;28;20516;-91
2022/03/01 08:00:57;;;;;;;18.53;9.97;;;;;;;1.92;65.40;102739.25;4971909;28;20096;-92
2022/03/01 08:03:22;;;;;;;25.23;9.50;;;;;;;1.95;65.72;102739.41;4989425;28;20049;-91
2022/03/01 08:05:47;;;;;;;16.07;9.17;;;;;;;1.96;64.95;102749.72;4970314;28;20137;-92
2022/03/01 08:08:13;;;;;;;21.07;9.93;;;;;;;1.96;65.17;102742.00;4974180;28;20113;-92
2022/03/01 08:10:40;;;;;;;16.63;9.40;;;;;;;1.99;65.37;102743.81;4990791;28;20023;-91
2022/03/01 08:13:05;;;;;;;19.23;10.10;;;;;;;2.02;65.75;102735.38;4991213;28;20057;-92
2022/03/01 08:15:30;;;;;;;18.10;9.93;;;;;;;2.06;65.69;102742.38;4972158;28;20054;-92
2022/03/01 08:17:57;;;;;;;17.37;9.57;;;;;;;2.09;66.07;102748.53;4971587;28;20734;-92
2022/03/01 08:20:23;;;;;;;16.83;9.77;;;;;;;2.16;65.73;102753.88;4986979;28;20062;-91
2022/03/01 08:22:49;;;;;;;17.33;9.67;;;;;;;2.21;66.18;102747.25;4990416;28;20031;-92
2022/03/01 08:25:15;;;;;;;20.77;10.23;;;;;;;2.29;66.64;102756.16;4974057;28;20077;-91
2022/03/01 08:27:41;;;;;;;17.70;9.57;;;;;;;2.35;65.97;102758.06;4973384;28;20109;-91
2022/03/01 08:30:07;;;;;;;17.63;9.87;;;;;;;2.42;65.61;102752.34;4992231;28;20022;-91
2022/03/01 08:32:33;;;;;;;20.50;10.13;;;;;;;2.49;64.72;102744.06;4989655;28;20121;-93
2022/03/01 08:34:58;;;;;;;18.13;10.13;;;;;;;2.55;64.84;102756.28;4974196;28;20034;-92
2022/03/01 08:37:23;;;;;;;18.57;10.17;;;;;;;2.62;64.93;102759.94;4975067;28;20026;-92
2022/03/01 08:39:49;;;;;;;18.47;9.73;;;;;;;2.68;65.55;102760.19;4989453;28;20074;-92
2022/03/01 08:42:14;;;;;;;19.07;10.73;;;;;;;2.72;64.56;102750.09;4971859;28;20470;-91
2022/03/01 08:44:39;;;;;;;15.20;9.37;;;;;;;2.80;64.73;102750.38;4975924;28;20018;-91
2022/03/01 08:47:04;;;;;;;19.17;10.70;;;;;;;2.86;64.98;102750.63;4990799;28;21514;-92
2022/03/01 08:49:30;;;;;;;17.33;9.93;;;;;;;2.94;64.59;102747.44;4973970;28;20118;-91
2022/03/01 08:51:55;;;;;;;17.17;9.67;;;;;;;3.02;63.94;102751.19;4990700;28;20038;-90
2022/03/01 08:54:21;;;;;;;18.43;10.17;;;;;;;3.09;65.01;102753.13;4974249;28;20037;-90
2022/03/01 08:56:46;;;;;;;17.90;10.03;;;;;;;3.16;64.61;102749.97;4990434;28;20098;-91
2022/03/01 08:59:11;;;;;;;20.03;9.80;;;;;;;3.23;64.01;102751.06;4971113;28;20058;-91
2022/03/01 09:01:37;;;;;;;16.87;9.50;;;;;;;3.33;63.73;102752.28;4971959;28;20026;-92
2022/03/01 09:04:03;;;;;;;18.60;9.73;;;;;;;3.39;63.35;102755.06;4989074;28;20466;-91
2022/03/01 09:06:28;;;;;;;17.90;9.70;;;;;;;3.48;62.25;102767.38;4971664;28;20042;-93
2022/03/01 09:08:54;;;;;;;17.77;10.00;;;;;;;3.54;62.41;102777.00;4983077;28;20438;-91
2022/03/01 09:11:19;;;;;;;16.77;9.67;;;;;;;3.63;63.27;102779.88;4968825;28;20027;-92
2022/03/01 09:13:44;;;;;;;21.00;10.40;;;;;;;3.73;62.72;102793.94;4966569;28;20093;-92
2022/03/01 09:16:10;;;;;;;16.27;9.33;;;;;;;3.80;61.71;102785.63;4969003;28;20132;-93
2022/03/01 09:18:36;;;;;;;19.23;10.00;;;;;;;3.89;61.37;102787.63;4970569;28;20026;-94
2022/03/01 09:21:03;;;;;;;20.20;10.40;;;;;;;3.98;61.48;102787.06;4974377;28;20026;-92
2022/03/01 09:23:30;;;;;;;16.27;9.67;;;;;;;4.06;61.57;102788.19;4992996;28;20125;-93
2022/03/01 09:25:55;;;;;;;16.87;9.67;;;;;;;4.09;61.31;102786.59;4968841;28;20026;-92
2022/03/01 09:28:20;;;;;;;18.37;10.63;;;;;;;4.16;62.03;102789.34;4974038;28;20026;-92
2022/03/01 09:30:46;;;;;;;18.37;10.60;;;;;;;4.20;59.37;102793.78;4984681;28;20415;-91
2022/03/01 09:33:11;;;;;;;16.97;9.83;;;;;;;4.27;61.08;102784.56;4984031;28;20109;-91
2022/03/01 09:35:36;;;;;;;17.57;9.93;;;;;;;4.38;61.03;102789.22;4965793;28;21726;-91
2022/03/01 09:38:02;;;;;;;19.27;10.17;;;;;;;4.46;61.01;102788.56;4968197;28;20062;-92
2022/03/01 09:40:27;;;;;;;16.47;9.93;;;;;;;4.53;60.91;102783.66;4968516;28;20030;-95
2022/03/01 09:42:53;;;;;;;16.88;9.88;;;;;;;4.63;61.57;102783.94;4967094;28;20485;-92
2022/03/01 09:45:19;;;;;;;18.13;10.02;;;;;;;4.70;59.73;102773.88;4982477;28;20061;-92
2022/03/01 09:47:44;;;;;;;19.27;10.65;;;;;;;4.77;59.97;102774.94;4965022;28;20050;-92
2022/03/01 09:50:11;;;;;;;16.97;10.07;;;;;;;4.84;60.42;102787.19;4985021;28;20117;-92
2022/03/01 09:52:38;;;;;;;17.35;10.05;;;;;;;4.92;60.56;102776.19;4967035;28;20046;-91
2022/03/01 09:55:06;;;;;;;18.52;10.32;;;;;;;5.04;61.04;102767.94;4985566;28;20113;-92
2022/03/01 09:57:31;;;;;;;16.88;9.93;;;;;;;5.10;60.06;102768.13;4965762;28;20494;-92
2022/03/01 09:59:57;;;;;;;18.50;10.30;;;;;;;5.16;59.61;102773.44;4973394;28;20042;-92
2022/03/01 10:02:42;;;;;;;18.17;10.40;;;;;;;5.22;60.36;102776.22;4972453;28;20022;-95
2022/03/01 10:05:09;;;;;;;18.60;9.80;;;;;;;5.29;60.00;102782.41;4969920;28;20059;-90
2022/03/01 10:07:35;;;;;;;17.00;9.70;;;;;;;5.36;59.34;102775.72;4968167;28;20031;-92
2022/03/01 10:10:19;;;;;;;17.88;9.50;;;;;;;5.44;59.68;102777.66;4944078;28;20026;-92
2022/03/01 10:12:53;;;;;;;17.70;10.02;;;;;;;5.54;59.57;102777.94;4946460;28;20117;-91
2022/03/01 10:15:18;;;;;;;16.98;9.38;;;;;;;5.60;59.10;102771.22;4964344;28;20030;-91
2022/03/01 10:17:46;;;;;;;16.83;9.95;;;;;;;5.70;59.15;102777.50;4968619;28;20477;-92
2022/03/01 10:20:14;;;;;;;22.17;11.30;;;;;;;5.74;57.79;102773.28;4966142;28;20031;-90
2022/03/01 10:22:44;;;;;;;16.13;10.10;;;;;;;5.77;57.98;102791.44;4951824;28;20059;-91
2022/03/01 10:25:10;;;;;;;17.83;10.05;;;;;;;5.78;56.98;102796.63;4969027;28;20035;-92
2022/03/01 10:27:36;;;;;;;16.40;10.23;;;;;;;5.80;58.31;102794.09;4971079;28;20081;-90
2022/03/01 10:30:05;;;;;;;16.45;9.80;;;;;;;5.81;56.15;102795.81;4970927;28;20026;-92
2022/03/01 10:32:31;;;;;;;21.95;11.27;;;;;;;5.81;57.08;102782.91;4950962;28;20038;-93
2022/03/01 10:35:02;;;;;;;17.13;10.80;;;;;;;5.83;57.92;102768.31;4949587;28;20410;-93
2022/03/01 10:37:30;;;;;;;18.13;9.88;;;;;;;5.88;57.00;102776.22;4948258;28;20030;-94
2022/03/01 10:40:27;;;;;;;17.50;9.65;;;;;;;5.98;58.38;102772.16;4949372;28;20058;-93
2022/03/01 10:43:03;;;;;;;18.10;9.80;;;;;;;6.10;58.19;102772.47;4949197;28;20089;-91
2022/03/01 10:45:33;;;;;;;16.80;9.88;;;;;;;6.20;57.75;102761.50;4962864;28;20051;-92
2022/03/01 10:47:59;;;;;;;15.52;9.52;;;;;;;6.34;58.25;102763.53;4953232;28;20043;-92
2022/03/01 10:50:24;;;;;;;16.88;9.90;;;;;;;6.43;56.50;102761.19;4950465;28;20031;-92
2022/03/01 10:52:50;;;;;;;17.65;9.90;;;;;;;6.53;56.21;102763.13;4967872;28;20034;-91
2022/03/01 10:55:30;;;;;;;16.23;9.70;;;;;;;6.61;57.55;102760.69;4946920;28;20030;-90
2022/03/01 10:57:59;;;;;;;17.73;9.95;;;;;;;6.68;57.16;102762.59;4947114;28;20410;-90
2022/03/01 11:00:25;;;;;;;16.58;10.07;;;;;;;6.75;55.25;102766.19;4947355;28;20178;-92
2022/03/01 11:02:50;;;;;;;17.45;10.40;;;;;;;6.82;56.39;102765.47;4944412;28;20556;-93
2022/03/01 11:05:15;;;;;;;16.05;10.13;;;;;;;6.88;55.89;102781.94;4954626;28;20070;-91
2022/03/01 11:07:43;;;;;;;16.65;10.25;;;;;;;6.92;54.68;102781.19;4987450;28;20030;-92
2022/03/01 11:10:12;;;;;;;18.27;10.10;;;;;;;6.96;55.68;102777.81;4987137;28;20057;-94
2022/03/01 11:12:38;;;;;;;18.83;10.48;;;;;;;7.02;54.75;102780.50;4991701;28;20041;-93
2022/03/01 11:15:35;;;;;;;20.02;10.55;;;;;;;7.03;56.05;102776.22;4988825;28;20037;-91
2022/03/01 11:18:17;;;;;;;18.88;10.35;;;;;;;6.99;53.78;102771.00;4988209;28;20124;-92
2022/03/01 11:20:46;;;;;;;18.33;10.35;;;;;;;7.09;54.35;102778.91;4985413;28;20112;-93
2022/03/01 11:23:15;;;;;;;17.08;10.55;;;;;;;7.14;51.95;102778.19;4984904;28;20034;-93